Time;durP1;ratioP1;P1;durP2;ratioP2;P2;SDS_P1;SDS_P2;PMS_P1;PMS_P2;Temp;Humidity;BMP_temperature;BMP_pressure;BME280_temperature;BME280_humidity;BME280_pressure;Samples;Min_cycle;Max_cycle;Signal;HPM_P1;HPM_P2
2023/06/07 00:00:12;;;;;;;;;;;;;;;18.01;77.80;100069.91;5052110;28;20671;-58
2023/06/07 00:02:38;;;;;;;;;;;;;;;17.99;78.24;100070.97;5051607;28;19967;-59
2023/06/07 00:05:04;;;;;;;;;;;;;;;17.98;78.24;100078.19;5049766;28;19920;-58
2023/06/07 00:07:29;;;;;;;;;;;;;;;17.93;78.30;100072.22;5051163;28;19924;-59
2023/06/07 00:09:55;;;;;;;;;;;;;;;17.92;78.54;100073.16;5050211;28;19925;-59
2023/06/07 00:12:20;;;;;;;;;;;;;;;17.93;78.61;100072.22;5050749;28;20003;-58
2023/06/07 00:14:45;;;;;;;;;;;;;;;17.91;78.73;100068.75;5050448;28;19920;-60
2023/06/07 00:17:10;;;;;;;;;;;;;;;17.86;79.02;100070.84;5050341;28;19920;-60
2023/06/07 00:19:36;;;;;;;;;;;;;;;17.80;79.46;100070.38;5050546;28;19920;-60
2023/06/07 00:22:02;;;;;;;;;;;;;;;17.74;79.46;100070.75;5051373;28;20376;-59
2023/06/07 00:24:27;;;;;;;;;;;;;;;17.70;78.69;100070.06;5038242;28;19920;-59
2023/06/07 00:26:53;;;;;;;;;;;;;;;17.68;78.75;100065.72;5052076;28;19923;-59
2023/06/07 00:29:18;;;;;;;;;;;;;;;17.66;79.15;100067.66;5049728;28;19928;-59
2023/06/07 00:31:43;;;;;;;;;;;;;;;17.64;78.57;100074.94;5051034;28;19924;-58
2023/06/07 00:34:09;;;;;;;;;;;;;;;17.60;78.11;100076.09;5050265;28;19932;-58
2023/06/07 00:36:34;;;;;;;;;;;;;;;17.58;78.21;100073.50;5051479;28;19917;-59
2023/06/07 00:38:59;;;;;;;;;;;;;;;17.54;77.72;100074.66;5050976;28;19916;-59
2023/06/07 00:41:25;;;;;;;;;;;;;;;17.57;77.21;100081.66;5050801;28;20399;-59
2023/06/07 00:43:50;;;;;;;;;;;;;;;17.55;77.36;100076.38;5050853;28;19928;-59
2023/06/07 00:46:17;;;;;;;;;;;;;;;17.52;77.80;100073.00;5050483;28;20398;-59
2023/06/07 00:48:43;;;;;;;;;;;;;;;17.48;77.33;100075.00;5050057;28;19925;-58
2023/06/07 00:51:08;;;;;;;;;;;;;;;17.45;77.69;100072.50;5032697;28;19927;-58
2023/06/07 00:53:34;;;;;;;;;;;;;;;17.42;77.45;100069.97;5050762;28;20054;-58
2023/06/07 00:55:59;;;;;;;;;;;;;;;17.43;77.37;100081.59;5032209;28;19917;-58
2023/06/07 00:58:25;;;;;;;;;;;;;;;17.41;77.84;100080.81;5056389;28;19924;-58
2023/06/07 01:00:51;;;;;;;;;;;;;;;17.35;77.54;100076.66;5051227;28;20006;-58
2023/06/07 01:03:16;;;;;;;;;;;;;;;17.34;77.54;100082.13;5067632;28;19920;-58
2023/06/07 01:05:44;;;;;;;;;;;;;;;17.32;77.82;100071.47;5070035;28;19942;-58
2023/06/07 01:08:09;;;;;;;;;;;;;;;17.30;77.75;100076.06;5069936;28;20392;-58
2023/06/07 01:10:35;;;;;;;;;;;;;;;17.27;77.67;100075.34;5069142;28;19927;-58
2023/06/07 01:13:02;;;;;;;;;;;;;;;17.24;77.36;100073.75;5051909;28;20455;-59
2023/06/07 01:15:27;;;;;;;;;;;;;;;17.21;77.38;100078.41;5069451;28;19924;-59
2023/06/07 01:17:53;;;;;;;;;;;;;;;17.18;77.18;100066.03;5070064;28;19931;-59
2023/06/07 01:20:23;;;;;;;;;;;;;;;17.14;76.97;100075.22;5069125;28;19920;-57
2023/06/07 01:22:51;;;;;;;;;;;;;;;17.12;77.29;100077.13;5070064;28;19943;-58
2023/06/07 01:25:16;;;;;;;;;;;;;;;17.07;77.68;100063.09;5069980;28;19920;-59
2023/06/07 01:27:43;;;;;;;;;;;;;;;17.05;77.64;100065.00;5070208;28;19917;-58
2023/06/07 01:30:10;;;;;;;;;;;;;;;17.03;77.34;100067.78;5069911;28;20047;-59
2023/06/07 01:32:36;;;;;;;;;;;;;;;17.01;77.31;100066.16;5069772;28;19921;-57
2023/06/07 01:35:02;;;;;;;;;;;;;;;17.00;77.06;100070.66;5070887;28;19977;-58
2023/06/07 01:37:27;;;;;;;;;;;;;;;16.97;78.05;100064.56;5070145;28;19924;-57
2023/06/07 01:39:54;;;;;;;;;;;;;;;16.94;77.95;100062.94;5069634;28;19916;-58
2023/06/07 01:42:19;;;;;;;;;;;;;;;16.95;78.26;100061.97;5070279;28;19923;-57
2023/06/07 01:44:46;;;;;;;;;;;;;;;16.90;78.88;100061.38;5070768;28;19916;-57
2023/06/07 01:47:12;;;;;;;;;;;;;;;16.88;78.58;100060.63;5070362;28;19994;-58
2023/06/07 01:49:38;;;;;;;;;;;;;;;16.86;79.21;100054.47;5069417;28;19920;-58
2023/06/07 01:52:03;;;;;;;;;;;;;;;16.83;80.01;100053.78;5070228;28;20334;-57
2023/06/07 01:54:29;;;;;;;;;;;;;;;16.77;79.64;100062.19;5069021;28;19917;-59
2023/06/07 01:57:04;;;;;;;;;;;;;;;16.73;80.35;100058.81;5068920;28;19921;-58
2023/06/07 01:59:32;;;;;;;;;;;;;;;16.70;80.69;100063.50;5068913;28;19920;-58
2023/06/07 02:02:03;;;;;;;;;;;;;;;16.70;80.94;100064.38;5068411;28;19942;-58
2023/06/07 02:04:30;;;;;;;;;;;;;;;16.68;81.23;100065.38;5069124;28;19932;-58
2023/06/07 02:06:59;;;;;;;;;;;;;;;16.67;80.46;100059.13;5068370;28;20250;-59
2023/06/07 02:09:25;;;;;;;;;;;;;;;16.65;81.23;100070.94;5069153;28;20361;-58
2023/06/07 02:11:51;;;;;;;;;;;;;;;16.63;80.16;100060.28;5069290;28;19920;-58
2023/06/07 02:14:17;;;;;;;;;;;;;;;16.60;81.02;100059.59;5069054;28;19927;-58
2023/06/07 02:16:42;;;;;;;;;;;;;;;16.57;81.31;100068.66;5069998;28;20380;-58
2023/06/07 02:19:09;;;;;;;;;;;;;;;16.53;81.55;100058.19;5069680;28;19932;-58
2023/06/07 02:21:36;;;;;;;;;;;;;;;16.50;82.39;100059.25;5068795;28;19917;-58
2023/06/07 02:24:02;;;;;;;;;;;;;;;16.47;81.44;100063.91;5069844;28;19943;-59
2023/06/07 02:26:27;;;;;;;;;;;;;;;16.45;82.36;100065.78;5051356;28;19967;-59
2023/06/07 02:28:52;;;;;;;;;;;;;;;16.42;82.39;100065.94;5069472;28;19920;-57
2023/06/07 02:31:20;;;;;;;;;;;;;;;16.40;82.57;100067.84;5069187;28;19921;-59
2023/06/07 02:33:45;;;;;;;;;;;;;;;16.40;82.45;100070.53;5073927;28;19920;-57
2023/06/07 02:36:12;;;;;;;;;;;;;;;16.36;83.17;100058.25;5073555;28;19920;-58
2023/06/07 02:38:38;;;;;;;;;;;;;;;16.34;83.54;100070.88;5073634;28;20295;-58
2023/06/07 02:41:03;;;;;;;;;;;;;;;16.32;83.77;100067.41;5072833;28;19921;-58
2023/06/07 02:43:28;;;;;;;;;;;;;;;16.28;84.31;100065.81;5072772;28;20392;-58
2023/06/07 02:45:54;;;;;;;;;;;;;;;16.27;84.32;100070.34;5072699;28;19920;-57
2023/06/07 02:48:19;;;;;;;;;;;;;;;16.26;84.59;100073.13;5073215;28;19917;-57
2023/06/07 02:50:46;;;;;;;;;;;;;;;16.23;85.21;100073.25;5073220;28;19928;-57
2023/06/07 02:53:11;;;;;;;;;;;;;;;16.19;86.36;100069.91;5054405;28;19935;-58
2023/06/07 02:55:37;;;;;;;;;;;;;;;16.14;86.25;100063.91;5073191;28;20330;-58
2023/06/07 02:58:02;;;;;;;;;;;;;;;16.16;86.70;100072.72;5073097;28;19953;-58
2023/06/07 03:00:27;;;;;;;;;;;;;;;16.17;86.31;100078.97;5072171;28;19924;-57
2023/06/07 03:02:52;;;;;;;;;;;;;;;16.16;86.97;100079.94;5068216;28;19950;-58
2023/06/07 03:05:18;;;;;;;;;;;;;;;16.14;86.81;100074.66;5072282;28;20329;-58
2023/06/07 03:07:45;;;;;;;;;;;;;;;16.11;87.32;100079.31;5071000;28;20012;-58
2023/06/07 03:10:11;;;;;;;;;;;;;;;16.09;87.29;100081.22;5069498;28;19928;-57
2023/06/07 03:12:36;;;;;;;;;;;;;;;16.02;87.70;100069.94;5072359;28;19920;-58
2023/06/07 03:15:02;;;;;;;;;;;;;;;16.00;88.41;100084.38;5071571;28;19923;-58
2023/06/07 03:17:27;;;;;;;;;;;;;;;16.00;88.64;100081.69;5072700;28;20399;-57
2023/06/07 03:19:53;;;;;;;;;;;;;;;15.96;88.74;100080.13;5072004;28;19946;-57
2023/06/07 03:22:21;;;;;;;;;;;;;;;15.93;88.53;100086.50;5071063;28;19924;-58
2023/06/07 03:24:46;;;;;;;;;;;;;;;15.93;88.70;100080.31;5072151;28;19916;-57
2023/06/07 03:27:11;;;;;;;;;;;;;;;15.90;89.93;100085.84;5071256;28;20210;-59
2023/06/07 03:29:37;;;;;;;;;;;;;;;15.91;90.04;100087.56;5072412;28;19924;-59
2023/06/07 03:32:03;;;;;;;;;;;;;;;15.87;89.96;100083.28;5072547;28;19924;-58
2023/06/07 03:34:32;;;;;;;;;;;;;;;15.82;89.97;100083.53;5071678;28;19924;-58
2023/06/07 03:36:58;;;;;;;;;;;;;;;15.81;89.97;100081.81;5069289;28;20421;-59
2023/06/07 03:39:24;;;;;;;;;;;;;;;15.78;90.14;100088.19;5069302;28;19927;-60
2023/06/07 03:41:49;;;;;;;;;;;;;;;15.79;89.72;100086.41;5071742;28;20365;-59
2023/06/07 03:44:15;;;;;;;;;;;;;;;15.79;90.43;100089.06;5070780;28;20006;-60
2023/06/07 03:46:42;;;;;;;;;;;;;;;15.78;90.52;100092.72;5072101;28;20023;-59
2023/06/07 03:49:07;;;;;;;;;;;;;;;15.78;91.25;100093.56;5071589;28;19926;-60
2023/06/07 03:51:32;;;;;;;;;;;;;;;15.79;90.40;100092.63;5070933;28;20369;-59
2023/06/07 03:53:58;;;;;;;;;;;;;;;15.80;90.80;100086.31;5065121;28;19921;-59
2023/06/07 03:56:23;;;;;;;;;;;;;;;15.83;92.17;100080.78;5063959;28;19921;-60
2023/06/07 03:58:48;;;;;;;;;;;;;;;15.88;91.66;100085.06;5071267;28;20017;-59
2023/06/07 04:01:16;;;;;;;;;;;;;;;15.93;91.62;100085.69;5071575;28;19920;-59
2023/06/07 04:03:41;;;;;;;;;;;;;;;15.98;92.57;100088.97;5071400;28;19917;-59
2023/06/07 04:06:08;;;;;;;;;;;;;;;16.10;92.83;100088.31;5070709;28;19928;-59
2023/06/07 04:08:36;;;;;;;;;;;;;;;16.16;93.12;100077.25;5071622;28;19939;-59
2023/06/07 04:11:01;;;;;;;;;;;;;;;16.23;93.64;100094.75;5071184;28;19924;-59
2023/06/07 04:13:26;;;;;;;;;;;;;;;16.30;93.12;100077.34;5070893;28;19921;-59
2023/06/07 04:15:51;;;;;;;;;;;;;;;16.31;93.57;100081.78;5071641;28;19940;-59
2023/06/07 04:18:17;;;;;;;;;;;;;;;16.38;92.93;100086.72;5070179;28;19916;-61
2023/06/07 04:20:42;;;;;;;;;;;;;;;16.43;93.01;100071.22;5069898;28;20315;-60
2023/06/07 04:23:07;;;;;;;;;;;;;;;16.45;92.95;100080.09;5069373;28;19916;-60
2023/06/07 04:25:33;;;;;;;;;;;;;;;16.54;92.63;100084.09;5069890;28;19931;-60
2023/06/07 04:28:01;;;;;;;;;;;;;;;16.61;92.86;100080.97;5069722;28;19916;-59
2023/06/07 04:30:34;;;;;;;;;;;;;;;16.67;92.80;100090.53;5068768;28;19924;-60
2023/06/07 04:33:03;;;;;;;;;;;;;;;16.75;92.91;100088.28;5070299;28;19920;-60
2023/06/07 04:35:31;;;;;;;;;;;;;;;16.84;92.31;100087.72;5069587;28;19942;-60
2023/06/07 04:37:57;;;;;;;;;;;;;;;16.91;92.39;100090.00;5068508;28;19956;-60
2023/06/07 04:40:23;;;;;;;;;;;;;;;17.00;91.84;100085.94;5068937;28;19935;-61
2023/06/07 04:43:08;;;;;;;;;;;;;;;17.09;91.62;100088.94;5068795;28;19926;-60
2023/06/07 04:45:36;;;;;;;;;;;;;;;17.17;91.44;100085.78;5067494;28;19920;-59
2023/06/07 04:48:02;;;;;;;;;;;;;;;17.27;91.34;100095.06;5068137;28;19923;-59
2023/06/07 04:50:29;;;;;;;;;;;;;;;17.34;90.64;100091.06;5061635;28;19925;-59
2023/06/07 04:53:03;;;;;;;;;;;;;;;17.46;90.07;100089.50;5058797;28;19916;-58
2023/06/07 04:55:34;;;;;;;;;;;;;;;17.53;89.97;100083.66;5070585;28;19974;-60
2023/06/07 04:57:59;;;;;;;;;;;;;;;17.63;89.29;100079.47;5070237;28;19921;-60
2023/06/07 05:00:25;;;;;;;;;;;;;;;17.72;88.63;100095.06;5069477;28;19927;-59
2023/06/07 05:02:52;;;;;;;;;;;;;;;17.83;88.05;100097.97;5070558;28;19981;-60
2023/06/07 05:05:17;;;;;;;;;;;;;;;17.90;87.53;100083.19;5070504;28;19949;-61
2023/06/07 05:07:44;;;;;;;;;;;;;;;17.98;87.25;100086.25;5069943;28;20016;-60
2023/06/07 05:10:09;;;;;;;;;;;;;;;18.06;86.68;100092.03;5070363;28;19991;-59
2023/06/07 05:12:35;;;;;;;;;;;;;;;18.19;86.99;100092.13;5069880;28;19959;-60
2023/06/07 05:15:00;;;;;;;;;;;;;;;18.28;86.45;100089.75;5070389;28;19916;-59
2023/06/07 05:17:28;;;;;;;;;;;;;;;18.40;85.91;100092.66;5070050;28;19927;-59
2023/06/07 05:19:54;;;;;;;;;;;;;;;18.43;84.64;100082.56;5066586;28;19977;-59
2023/06/07 05:22:19;;;;;;;;;;;;;;;18.47;83.80;100084.06;5066459;28;19920;-60
2023/06/07 05:24:45;;;;;;;;;;;;;;;18.58;82.74;100080.69;5055895;28;20642;-60
2023/06/07 05:27:11;;;;;;;;;;;;;;;18.73;83.15;100085.09;5069379;28;20346;-60
2023/06/07 05:29:36;;;;;;;;;;;;;;;18.81;82.12;100088.16;5066842;28;19924;-59
2023/06/07 05:32:01;;;;;;;;;;;;;;;18.91;82.23;100087.44;5069186;28;19917;-60
2023/06/07 05:34:26;;;;;;;;;;;;;;;19.01;81.52;100090.44;5069464;28;19927;-60
2023/06/07 05:36:52;;;;;;;;;;;;;;;19.16;81.62;100094.81;5069035;28;20009;-60
2023/06/07 05:39:17;;;;;;;;;;;;;;;19.30;80.92;100101.06;5069773;28;20332;-59
2023/06/07 05:41:42;;;;;;;;;;;;;;;19.31;79.58;100097.38;5062776;28;19928;-60
2023/06/07 05:44:07;;;;;;;;;;;;;;;19.38;79.20;100100.53;5056169;28;20371;-60
2023/06/07 05:46:33;;;;;;;;;;;;;;;19.52;77.97;100098.63;5059984;28;19924;-60
2023/06/07 05:48:58;;;;;;;;;;;;;;;19.56;77.96;100097.47;5058265;28;19916;-60
2023/06/07 05:51:23;;;;;;;;;;;;;;;19.71;77.93;100103.63;5060738;28;19917;-66
2023/06/07 05:53:49;;;;;;;;;;;;;;;19.76;75.73;100098.78;5066590;28;20425;-67
2023/06/07 05:56:16;;;;;;;;;;;;;;;19.85;76.06;100100.00;5063858;28;19917;-66
2023/06/07 05:58:43;;;;;;;;;;;;;;;20.04;75.94;100095.91;5066990;28;19928;-66
2023/06/07 06:01:11;;;;;;;;;;;;;;;20.15;75.77;100103.28;5067645;28;19920;-66
2023/06/07 06:03:36;;;;;;;;;;;;;;;20.29;74.78;100104.06;5065196;28;19917;-67
2023/06/07 06:06:11;;;;;;;;;;;;;;;20.45;75.04;100101.97;5059229;28;19916;-67
2023/06/07 06:08:36;;;;;;;;;;;;;;;20.55;73.80;100097.66;5063073;28;19916;-66
2023/06/07 06:11:01;;;;;;;;;;;;;;;20.68;73.34;100106.59;5060204;28;19931;-66
2023/06/07 06:13:30;;;;;;;;;;;;;;;20.78;71.78;100099.53;5057228;28;20326;-66
2023/06/07 06:15:55;;;;;;;;;;;;;;;20.93;71.86;100103.84;5058388;28;19972;-67
2023/06/07 06:18:21;;;;;;;;;;;;;;;21.10;72.51;100107.16;5068010;28;20573;-66
2023/06/07 06:20:46;;;;;;;;;;;;;;;21.20;72.00;100100.09;5065438;28;19921;-67
2023/06/07 06:23:11;;;;;;;;;;;;;;;21.35;70.51;100099.78;5066219;28;20315;-67
2023/06/07 06:25:37;;;;;;;;;;;;;;;21.47;70.62;100109.69;5057968;28;19962;-66
2023/06/07 06:28:02;;;;;;;;;;;;;;;21.68;70.08;100099.09;5049297;28;19928;-66
2023/06/07 06:30:27;;;;;;;;;;;;;;;21.84;68.99;100105.06;5065422;28;19928;-66
2023/06/07 06:32:53;;;;;;;;;;;;;;;21.92;68.53;100100.81;5063433;28;19924;-66
2023/06/07 06:35:18;;;;;;;;;;;;;;;22.04;68.82;100101.69;5052530;28;19920;-65
2023/06/07 06:37:44;;;;;;;;;;;;;;;22.07;66.92;100105.00;5061644;28;20412;-66
2023/06/07 06:40:09;;;;;;;;;;;;;;;22.21;67.00;100106.63;5065765;28;19925;-66
2023/06/07 06:42:35;;;;;;;;;;;;;;;22.43;65.99;100112.09;5067107;28;20330;-66
2023/06/07 06:45:00;;;;;;;;;;;;;;;22.56;64.96;100112.88;5060060;28;20467;-66
2023/06/07 06:47:26;;;;;;;;;;;;;;;22.71;64.75;100111.63;5061346;28;19962;-66
2023/06/07 06:49:53;;;;;;;;;;;;;;;22.89;65.10;100109.25;5067346;28;19959;-66
2023/06/07 06:52:18;;;;;;;;;;;;;;;22.99;65.29;100116.53;5056948;28;20681;-65
2023/06/07 06:54:44;;;;;;;;;;;;;;;23.16;64.17;100107.84;5067545;28;19912;-66
2023/06/07 06:57:10;;;;;;;;;;;;;;;23.25;62.52;100112.53;5065900;28;19916;-66
2023/06/07 06:59:35;;;;;;;;;;;;;;;23.44;61.92;100107.31;5047721;28;20584;-65
2023/06/07 07:02:01;;;;;;;;;;;;;;;23.54;61.18;100114.69;5028556;28;20460;-65
2023/06/07 07:04:26;;;;;;;;;;;;;;;23.66;60.50;100106.38;5044541;28;19951;-65
2023/06/07 07:06:51;;;;;;;;;;;;;;;23.85;61.08;100111.97;5045154;28;19927;-65
2023/06/07 07:09:16;;;;;;;;;;;;;;;23.99;58.54;100118.94;5046436;28;20015;-65
2023/06/07 07:11:42;;;;;;;;;;;;;;;24.17;58.92;100112.78;5045747;28;19920;-65
2023/06/07 07:14:07;;;;;;;;;;;;;;;24.29;59.36;100116.28;5039374;28;19935;-66
2023/06/07 07:16:32;;;;;;;;;;;;;;;24.52;60.38;100112.41;5035179;28;19925;-66
2023/06/07 07:18:58;;;;;;;;;;;;;;;24.63;58.64;100110.47;5041778;28;19920;-67
2023/06/07 07:21:23;;;;;;;;;;;;;;;24.80;55.89;100110.84;5045196;28;19952;-64
2023/06/07 07:23:48;;;;;;;;;;;;;;;25.03;57.17;100118.69;5046711;28;19920;-64
2023/06/07 07:26:14;;;;;;;;;;;;;;;25.26;53.61;100114.72;5045953;28;19921;-64
2023/06/07 07:28:39;;;;;;;;;;;;;;;25.45;55.08;100114.78;5050655;28;20341;-65
2023/06/07 07:31:04;;;;;;;;;;;;;;;25.60;53.09;100124.25;5048278;28;20012;-64
2023/06/07 07:33:29;;;;;;;;;;;;;;;25.71;54.41;100113.25;5048823;28;19983;-64
2023/06/07 07:35:55;;;;;;;;;;;;;;;25.91;52.45;100106.75;5049632;28;20547;-63
2023/06/07 07:38:20;;;;;;;;;;;;;;;26.07;50.16;100110.78;5049899;28;19920;-64
2023/06/07 07:40:47;;;;;;;;;;;;;;;26.26;50.63;100117.06;5051090;28;19945;-63
2023/06/07 07:43:12;;;;;;;;;;;;;;;26.54;49.76;100109.84;5050576;28;19936;-64
2023/06/07 07:45:37;;;;;;;;;;;;;;;26.88;50.08;100111.91;5051682;28;19921;-63
2023/06/07 07:48:03;;;;;;;;;;;;;;;27.23;48.18;100113.00;5048748;28;20047;-64
2023/06/07 07:50:29;;;;;;;;;;;;;;;27.32;46.17;100117.56;5032397;28;19943;-63
2023/06/07 07:52:56;;;;;;;;;;;;;;;27.26;45.58;100115.41;5045512;28;19936;-63
2023/06/07 07:55:22;;;;;;;;;;;;;;;27.40;45.66;100120.41;5049322;28;19935;-62
2023/06/07 07:57:48;;;;;;;;;;;;;;;27.51;46.20;100112.84;5049722;28;19917;-62
2023/06/07 08:00:14;;;;;;;;;;;;;;;27.64;45.14;100118.78;5070440;28;19920;-62
2023/06/07 08:02:39;;;;;;;;;;;;;;;27.85;46.27;100116.59;5068860;28;20004;-63
2023/06/07 08:05:06;;;;;;;;;;;;;;;28.12;45.84;100124.69;5070961;28;20657;-63
2023/06/07 08:07:32;;;;;;;;;;;;;;;28.21;45.22;100118.28;5069969;28;20425;-63
2023/06/07 08:09:57;;;;;;;;;;;;;;;28.72;45.09;100111.13;5068391;28;19924;-63
2023/06/07 08:12:22;;;;;;;;;;;;;;;28.99;44.36;100121.88;5050741;28;19916;-62
2023/06/07 08:14:48;;;;;;;;;;;;;;;29.23;43.52;100120.13;5071654;28;20041;-62
2023/06/07 08:17:13;;;;;;;;;;;;;;;29.02;42.83;100113.31;5069558;28;20031;-62
2023/06/07 08:19:38;;;;;;;;;;;;;;;29.20;44.12;100119.59;5051440;28;19920;-62
2023/06/07 08:22:07;;;;;;;;;;;;;;;28.92;42.99;100107.97;5052887;28;19916;-62
2023/06/07 08:24:32;;;;;;;;;;;;;;;29.10;43.61;100110.66;5070395;28;19960;-62
2023/06/07 08:26:57;;;;;;;;;;;;;;;29.34;43.24;100119.81;5065857;28;19955;-63
2023/06/07 08:29:23;;;;;;;;;;;;;;;29.42;43.14;100110.78;5050668;28;19925;-62
2023/06/07 08:31:48;;;;;;;;;;;;;;;29.41;42.35;100103.56;5063386;28;19925;-62
2023/06/07 08:34:13;;;;;;;;;;;;;;;29.34;43.38;100110.75;5064052;28;19932;-62
2023/06/07 08:36:39;;;;;;;;;;;;;;;29.66;42.98;100102.63;5050230;28;19921;-62
2023/06/07 08:39:05;;;;;;;;;;;;;;;29.73;44.86;100109.16;5058218;28;19913;-63
2023/06/07 08:41:30;;;;;;;;;;;;;;;29.86;43.45;100109.50;5051544;28;19949;-62
2023/06/07 08:43:55;;;;;;;;;;;;;;;29.95;42.25;100113.13;5052283;28;19916;-62
2023/06/07 08:46:23;;;;;;;;;;;;;;;29.94;43.01;100105.88;5050307;28;20482;-63
2023/06/07 08:48:48;;;;;;;;;;;;;;;30.05;43.02;100106.41;5068065;28;19912;-62
2023/06/07 08:51:15;;;;;;;;;;;;;;;29.93;40.91;100109.69;5050610;28;20304;-62
2023/06/07 08:53:47;;;;;;;;;;;;;;;30.12;43.24;100110.19;5064771;28;19916;-62
2023/06/07 08:56:13;;;;;;;;;;;;;;;30.57;40.23;100109.66;5069581;28;19920;-62
2023/06/07 08:58:38;;;;;;;;;;;;;;;30.75;41.93;100104.81;5054965;28;20411;-62
2023/06/07 09:01:04;;;;;;;;;;;;;;;30.76;41.05;100107.38;5049300;28;19920;-62
2023/06/07 09:03:29;;;;;;;;;;;;;;;30.71;40.79;100107.03;5052462;28;19920;-62
2023/06/07 09:05:55;;;;;;;;;;;;;;;30.89;40.43;100112.31;5048827;28;20479;-62
2023/06/07 09:08:20;;;;;;;;;;;;;;;31.04;40.14;100107.81;5065158;28;20404;-62
2023/06/07 09:10:45;;;;;;;;;;;;;;;31.14;42.51;100113.13;5050707;28;20623;-62
2023/06/07 09:13:12;;;;;;;;;;;;;;;31.11;41.23;100103.31;5063618;28;19912;-62
2023/06/07 09:15:38;;;;;;;;;;;;;;;31.39;41.49;100109.22;5050533;28;19924;-63
2023/06/07 09:18:04;;;;;;;;;;;;;;;31.55;39.84;100107.22;5055654;28;19921;-63
2023/06/07 09:20:33;;;;;;;;;;;;;;;31.63;38.22;100114.59;5066825;28;19920;-63
2023/06/07 09:23:01;;;;;;;;;;;;;;;31.68;39.78;100101.97;5063738;28;20772;-63
2023/06/07 09:25:27;;;;;;;;;;;;;;;31.79;38.63;100104.34;5054881;28;19920;-63
2023/06/07 09:27:53;;;;;;;;;;;;;;;32.12;38.70;100113.22;5055000;28;19961;-63
2023/06/07 09:30:19;;;;;;;;;;;;;;;32.09;39.25;100110.84;5050351;28;19920;-63
2023/06/07 09:32:44;;;;;;;;;;;;;;;32.18;38.47;100106.94;5049227;28;19924;-64
2023/06/07 09:35:10;;;;;;;;;;;;;;;32.27;39.36;100105.84;5049252;28;19916;-64
2023/06/07 09:37:46;;;;;;;;;;;;;;;32.37;37.80;100113.84;5065545;28;19920;-64
2023/06/07 09:40:13;;;;;;;;;;;;;;;32.27;38.44;100114.13;5051642;28;19927;-63
2023/06/07 09:42:38;;;;;;;;;;;;;;;31.90;37.75;100112.19;5062354;28;19917;-64
2023/06/07 09:45:11;;;;;;;;;;;;;;;31.98;37.77;100114.00;5065890;28;20394;-64
2023/06/07 09:47:36;;;;;;;;;;;;;;;31.81;38.02;100117.91;5064066;28;19960;-63
2023/06/07 09:50:09;;;;;;;;;;;;;;;31.85;38.70;100109.13;5062220;28;20336;-64
2023/06/07 09:52:34;;;;;;;;;;;;;;;31.94;38.00;100108.00;5069332;28;19974;-64
2023/06/07 09:55:02;;;;;;;;;;;;;;;32.36;38.29;100107.47;5053117;28;19948;-64
2023/06/07 09:57:28;;;;;;;;;;;;;;;32.70;37.15;100104.25;5048823;28;19955;-64
2023/06/07 09:59:58;;;;;;;;;;;;;;;32.83;38.28;100109.94;5034347;28;20138;-64
2023/06/07 10:02:26;;;;;;;;;;;;;;;32.75;36.49;100102.59;5036789;28;20205;-64
2023/06/07 10:04:52;;;;;;;;;;;;;;;32.84;36.13;100106.13;5038425;28;19920;-64
2023/06/07 10:07:19;;;;;;;;;;;;;;;32.84;37.31;100101.47;5047000;28;19917;-64
2023/06/07 10:09:47;;;;;;;;;;;;;;;32.63;36.44;100098.63;5030425;28;19932;-64
2023/06/07 10:12:13;;;;;;;;;;;;;;;32.74;35.82;100095.41;5029300;28;19948;-64
2023/06/07 10:14:40;;;;;;;;;;;;;;;32.85;35.86;100092.16;5032755;28;20318;-64
2023/06/07 10:17:10;;;;;;;;;;;;;;;32.23;35.88;100093.50;5040976;28;20027;-64
2023/06/07 10:19:40;;;;;;;;;;;;;;;32.18;35.91;100093.19;5045755;28;19917;-64
2023/06/07 10:22:08;;;;;;;;;;;;;;;32.56;35.03;100089.41;5040798;28;19913;-64
2023/06/07 10:24:39;;;;;;;;;;;;;;;32.61;35.59;100089.69;5028743;28;19917;-64
2023/06/07 10:27:17;;;;;;;;;;;;;;;32.63;34.26;100084.84;5035279;28;19921;-65
2023/06/07 10:29:46;;;;;;;;;;;;;;;32.92;34.82;100081.25;5032507;28;19968;-64
2023/06/07 10:32:16;;;;;;;;;;;;;;;33.00;34.47;100076.50;5043612;28;19917;-64
2023/06/07 10:34:46;;;;;;;;;;;;;;;33.25;34.01;100082.53;5041791;28;19913;-65
2023/06/07 10:37:13;;;;;;;;;;;;;;;33.12;33.46;100077.72;5029429;28;19913;-65
2023/06/07 10:39:38;;;;;;;;;;;;;;;32.80;35.02;100078.09;5034105;28;20011;-64
2023/06/07 10:42:05;;;;;;;;;;;;;;;33.15;34.70;100082.84;5033242;28;20039;-64
2023/06/07 10:44:30;;;;;;;;;;;;;;;33.57;33.93;100081.25;5043432;28;20601;-63
2023/06/07 10:47:14;;;;;;;;;;;;;;;33.78;34.77;100078.50;5049349;28;20004;-64
2023/06/07 10:49:39;;;;;;;;;;;;;;;33.90;33.57;100074.19;5036387;28;20015;-64
2023/06/07 10:52:05;;;;;;;;;;;;;;;33.90;32.97;100065.91;5037131;28;20050;-64
2023/06/07 10:54:31;;;;;;;;;;;;;;;34.03;34.07;100074.34;5036681;28;19953;-65
2023/06/07 10:56:57;;;;;;;;;;;;;;;34.07;31.94;100078.41;5033503;28;19924;-64
2023/06/07 10:59:23;;;;;;;;;;;;;;;34.29;33.87;100071.78;5058569;28;19920;-64
2023/06/07 11:01:50;;;;;;;;;;;;;;;34.46;33.06;100068.56;5072201;28;20615;-65
2023/06/07 11:04:42;;;;;;;;;;;;;;;34.12;31.36;100065.69;5056356;28;20004;-64
2023/06/07 11:07:38;;;;;;;;;;;;;;;33.89;31.70;100064.19;5054407;28;19920;-65
2023/06/07 11:10:07;;;;;;;;;;;;;;;33.77;32.00;100054.72;5059601;28;19946;-65
2023/06/07 11:12:35;;;;;;;;;;;;;;;34.18;32.43;100059.41;5062633;28;19917;-64
2023/06/07 11:15:25;;;;;;;;;;;;;;;34.24;31.39;100063.25;5071100;28;19912;-65
2023/06/07 11:17:51;;;;;;;;;;;;;;;34.32;32.42;100054.81;5063184;28;19920;-64
2023/06/07 11:20:40;;;;;;;;;;;;;;;34.49;34.09;100050.72;5059306;28;19957;-64
2023/06/07 11:23:21;;;;;;;;;;;;;;;34.79;31.83;100049.44;5055045;28;19916;-64
2023/06/07 11:25:47;;;;;;;;;;;;;;;34.98;33.12;100048.69;5058220;28;20385;-64
2023/06/07 11:28:13;;;;;;;;;;;;;;;35.03;30.52;100043.41;5053259;28;19916;-64
2023/06/07 11:30:40;;;;;;;;;;;;;;;35.01;29.50;100048.28;5055340;28;19916;-64
2023/06/07 11:33:06;;;;;;;;;;;;;;;34.93;29.72;100042.94;5052407;28;19921;-65
2023/06/07 11:35:31;;;;;;;;;;;;;;;34.82;31.46;100037.97;5058085;28;19939;-65
2023/06/07 11:38:01;;;;;;;;;;;;;;;34.87;30.55;100037.34;5056032;28;19924;-64
2023/06/07 11:40:27;;;;;;;;;;;;;;;34.93;29.94;100031.00;5060174;28;19930;-64
2023/06/07 11:42:52;;;;;;;;;;;;;;;35.12;30.64;100042.19;5064421;28;20391;-65
2023/06/07 11:45:17;;;;;;;;;;;;;;;35.28;30.30;100046.47;5052242;28;19921;-64
2023/06/07 11:47:46;;;;;;;;;;;;;;;34.87;29.82;100043.72;5055122;28;20078;-65
2023/06/07 11:50:13;;;;;;;;;;;;;;;34.80;31.18;100031.78;5059955;28;20026;-65
2023/06/07 11:52:39;;;;;;;;;;;;;;;34.59;30.00;100031.88;5052975;28;19916;-64
2023/06/07 11:55:04;;;;;;;;;;;;;;;34.87;31.55;100032.66;5059254;28;20028;-64
2023/06/07 11:57:32;;;;;;;;;;;;;;;35.02;29.86;100030.66;5068443;28;20437;-64
2023/06/07 11:59:57;;;;;;;;;;;;;;;34.93;29.90;100026.34;5054641;28;19971;-65
2023/06/07 12:02:22;;;;;;;;;;;;;;;35.25;30.79;100022.88;5060405;28;19951;-65
2023/06/07 12:04:48;;;;;;;;;;;;;;;35.67;30.09;100019.78;5058066;28;20337;-64
2023/06/07 12:07:17;;;;;;;;;;;;;;;35.41;28.36;100021.66;5064437;28;19936;-64
2023/06/07 12:09:42;;;;;;;;;;;;;;;35.26;28.73;100013.50;5049085;28;19930;-65
2023/06/07 12:12:14;;;;;;;;;;;;;;;35.67;29.64;100017.03;5059444;28;20538;-64
2023/06/07 12:14:40;;;;;;;;;;;;;;;35.29;29.24;100009.47;5054346;28;19913;-65
2023/06/07 12:17:06;;;;;;;;;;;;;;;35.27;29.89;100017.13;5062957;28;19917;-64
2023/06/07 12:19:31;;;;;;;;;;;;;;;35.17;29.75;100003.69;5060891;28;19921;-65
2023/06/07 12:22:06;;;;;;;;;;;;;;;35.73;30.19;100007.84;5067293;28;19916;-65
2023/06/07 12:24:31;;;;;;;;;;;;;;;35.85;29.47;100004.47;5052674;28;19920;-65
2023/06/07 12:26:56;;;;;;;;;;;;;;;36.30;31.20;100000.84;5057940;28;20379;-65
2023/06/07 12:29:29;;;;;;;;;;;;;;;36.31;29.06;99995.09;5055245;28;19975;-65
2023/06/07 12:31:55;;;;;;;;;;;;;;;36.26;30.16;99994.88;5062959;28;19931;-64
2023/06/07 12:34:26;;;;;;;;;;;;;;;36.39;29.72;99992.16;5053492;28;19964;-64